createdAt,value
2023-04-23T00:01:30.229Z,12.80
2023-04-23T00:03:58.894Z,12.97
2023-04-23T00:06:26.975Z,12.93
2023-04-23T00:08:55.454Z,12.88
2023-04-23T00:11:23.587Z,12.81
2023-04-23T00:13:51.181Z,12.82
2023-04-23T00:16:19.894Z,12.80
2023-04-23T00:18:47.945Z,12.84
2023-04-23T00:21:15.554Z,12.93
2023-04-23T00:23:42.730Z,12.93
2023-04-23T00:26:10.196Z,12.95
2023-04-23T00:28:37.646Z,12.97
2023-04-23T00:31:05.736Z,12.88
2023-04-23T00:33:32.969Z,13.06
2023-04-23T00:36:00.590Z,13.09
2023-04-23T00:38:28.242Z,13.09
2023-04-23T00:40:55.943Z,13.06
2023-04-23T00:43:24.225Z,13.02
2023-04-23T00:45:52.131Z,13.05
2023-04-23T00:48:19.308Z,13.00
2023-04-23T00:50:47.014Z,12.91
2023-04-23T00:53:14.304Z,12.97
2023-04-23T00:55:41.877Z,12.98
2023-04-23T00:58:09.265Z,12.83
2023-04-23T01:00:45.182Z,12.90
2023-04-23T01:03:13.392Z,12.85
2023-04-23T01:05:43.061Z,12.84
2023-04-23T01:08:15.268Z,12.71
2023-04-23T01:10:44.794Z,12.70
2023-04-23T01:13:15.653Z,12.61
2023-04-23T01:15:44.494Z,12.57
2023-04-23T01:18:12.893Z,12.57
2023-04-23T01:20:40.790Z,12.52
2023-04-23T01:23:08.190Z,12.33
2023-04-23T01:25:36.392Z,12.52
2023-04-23T01:28:04.860Z,12.40
2023-04-23T01:30:33.524Z,12.40
2023-04-23T01:33:02.644Z,12.30
2023-04-23T01:35:31.231Z,12.40
2023-04-23T01:38:00.887Z,12.25
2023-04-23T01:40:28.544Z,12.35
2023-04-23T01:42:56.787Z,12.17
2023-04-23T01:45:24.795Z,12.24
2023-04-23T01:47:53.798Z,12.01
2023-04-23T01:50:24.477Z,12.12
2023-04-23T01:52:51.836Z,11.93
2023-04-23T01:55:20.975Z,12.03
2023-04-23T01:57:48.404Z,11.97
2023-04-23T02:00:17.246Z,11.91
2023-04-23T02:02:45.154Z,11.86
2023-04-23T02:05:16.602Z,11.87
2023-04-23T02:07:45.068Z,11.79
2023-04-23T02:10:13.126Z,11.67
2023-04-23T02:12:40.508Z,11.80
2023-04-23T02:15:11.923Z,11.94
2023-04-23T02:17:41.970Z,11.94
2023-04-23T02:20:10.632Z,11.58
2023-04-23T02:22:40.919Z,11.52
2023-04-23T02:25:09.104Z,11.48
2023-04-23T02:27:36.848Z,11.42
2023-04-23T02:30:05.093Z,11.50
2023-04-23T02:32:32.536Z,11.47
2023-04-23T02:35:02.112Z,11.47
2023-04-23T02:37:29.421Z,11.42
2023-04-23T02:39:56.901Z,11.15
2023-04-23T02:42:24.154Z,11.24
2023-04-23T02:44:51.617Z,11.26
2023-04-23T02:47:19.332Z,11.25
2023-04-23T02:49:46.940Z,11.12
2023-04-23T02:52:14.145Z,11.05
2023-04-23T02:54:42.014Z,10.99
2023-04-23T02:57:09.634Z,11.16
2023-04-23T02:59:37.682Z,11.24
2023-04-23T03:02:04.960Z,11.21
2023-04-23T03:04:32.600Z,10.99
2023-04-23T03:06:59.762Z,10.90
2023-04-23T03:09:27.267Z,11.04
2023-04-23T03:11:54.558Z,10.94
2023-04-23T03:14:22.101Z,10.98
2023-04-23T03:16:49.310Z,11.01
2023-04-23T03:19:17.393Z,10.95
2023-04-23T03:21:44.620Z,11.03
2023-04-23T03:24:13.643Z,10.77
2023-04-23T03:26:41.268Z,10.83
2023-04-23T03:29:10.704Z,10.86
2023-04-23T03:31:38.256Z,10.50
2023-04-23T03:34:06.548Z,10.78
2023-04-23T03:36:35.617Z,10.88
2023-04-23T03:39:03.997Z,10.94
2023-04-23T03:41:43.537Z,10.77
2023-04-23T03:44:12.648Z,10.91
2023-04-23T03:46:42.570Z,10.94
2023-04-23T03:49:10.811Z,11.16
2023-04-23T03:51:38.282Z,11.24
2023-04-23T03:54:05.866Z,11.65
2023-04-23T03:56:41.187Z,11.82
2023-04-23T03:59:18.877Z,11.58
2023-04-23T04:01:48.760Z,11.54
2023-04-23T04:04:16.828Z,11.43
2023-04-23T04:06:44.160Z,11.28
2023-04-23T04:09:11.660Z,12.00
2023-04-23T04:11:39.000Z,11.64
2023-04-23T04:14:06.486Z,11.62
2023-04-23T04:16:33.746Z,11.85
2023-04-23T04:19:01.655Z,11.87
2023-04-23T04:21:28.805Z,11.73
2023-04-23T04:23:56.570Z,11.94
2023-04-23T04:26:23.777Z,13.18
2023-04-23T04:28:51.556Z,13.45
2023-04-23T04:31:20.567Z,13.02
2023-04-23T04:33:48.328Z,14.50
2023-04-23T04:36:15.700Z,14.27
2023-04-23T04:38:43.953Z,14.49
2023-04-23T04:41:11.565Z,15.17
2023-04-23T04:43:40.284Z,15.12
2023-04-23T04:46:07.759Z,15.96
2023-04-23T04:48:35.358Z,16.13
2023-04-23T04:51:02.663Z,17.97
2023-04-23T04:53:30.232Z,16.11
2023-04-23T04:55:57.407Z,17.55
2023-04-23T04:58:24.945Z,16.12
2023-04-23T05:00:52.298Z,19.56
2023-04-23T05:03:20.260Z,20.37
2023-04-23T05:05:48.750Z,19.28
2023-04-23T05:08:21.498Z,17.51
2023-04-23T05:10:50.520Z,19.00
2023-04-23T05:13:18.015Z,20.55
2023-04-23T05:15:46.291Z,19.24
2023-04-23T05:18:13.829Z,18.08
2023-04-23T05:20:41.711Z,18.78
2023-04-23T05:23:09.185Z,18.73
2023-04-23T05:25:36.337Z,17.85
2023-04-23T05:28:04.321Z,15.88
2023-04-23T05:30:31.547Z,16.03
2023-04-23T05:32:59.051Z,14.22
2023-04-23T05:35:26.269Z,14.38
2023-04-23T05:37:54.019Z,14.81
2023-04-23T05:40:21.249Z,14.86
2023-04-23T05:42:49.200Z,14.59
2023-04-23T05:45:16.454Z,14.22
2023-04-23T05:47:43.987Z,14.65
2023-04-23T05:50:11.708Z,16.02
2023-04-23T05:52:39.590Z,15.35
2023-04-23T05:55:09.827Z,16.08
2023-04-23T05:57:39.230Z,17.43
2023-04-23T06:00:09.861Z,16.89
2023-04-23T06:02:41.405Z,19.77
2023-04-23T06:05:09.503Z,22.33
2023-04-23T06:07:37.273Z,22.97
2023-04-23T06:10:05.718Z,27.64
2023-04-23T06:12:33.288Z,25.80
2023-04-23T06:15:00.577Z,23.45
2023-04-23T06:17:28.083Z,21.76
2023-04-23T06:19:55.390Z,28.17
2023-04-23T06:22:22.855Z,23.89
2023-04-23T06:24:50.058Z,24.37
2023-04-23T06:27:17.526Z,25.86
2023-04-23T06:29:49.413Z,22.88
2023-04-23T06:32:19.778Z,26.20
2023-04-23T06:35:00.392Z,23.17
2023-04-23T06:37:30.924Z,27.46
2023-04-23T06:39:59.574Z,27.13
2023-04-23T06:42:27.079Z,25.99
2023-04-23T06:45:26.631Z,25.99
2023-04-23T06:47:54.146Z,31.35
2023-04-23T06:50:21.426Z,32.20
2023-04-23T06:52:48.962Z,28.77
2023-04-23T06:55:16.257Z,25.58
2023-04-23T06:57:43.785Z,30.35
2023-04-23T07:00:11.917Z,26.74
2023-04-23T07:02:42.215Z,23.75
2023-04-23T07:05:10.649Z,21.78
2023-04-23T07:07:38.564Z,24.39
2023-04-23T07:10:07.152Z,25.78
2023-04-23T07:12:34.740Z,30.18
2023-04-23T07:15:02.284Z,32.81
2023-04-23T07:17:29.843Z,28.96
2023-04-23T07:19:57.377Z,33.75
2023-04-23T07:22:26.590Z,27.37
2023-04-23T07:24:54.282Z,23.89
2023-04-23T07:27:21.911Z,27.49
2023-04-23T07:29:49.097Z,26.20
2023-04-23T07:32:16.995Z,29.65
2023-04-23T07:34:44.426Z,30.35
2023-04-23T07:37:11.987Z,32.33
2023-04-23T07:39:40.035Z,29.94
2023-04-23T07:42:09.413Z,29.43
2023-04-23T07:44:36.684Z,29.30
2023-04-23T07:47:04.224Z,27.11
2023-04-23T07:49:31.467Z,27.97
2023-04-23T07:51:58.960Z,31.83
2023-04-23T07:54:26.727Z,28.53
2023-04-23T07:56:54.221Z,26.91
2023-04-23T07:59:21.597Z,26.39
2023-04-23T08:01:49.062Z,30.84
2023-04-23T08:04:16.368Z,27.63
2023-04-23T08:06:44.206Z,27.36
2023-04-23T08:09:11.473Z,27.81
2023-04-23T08:11:38.933Z,28.20
2023-04-23T08:14:06.289Z,30.07
2023-04-23T08:16:35.265Z,27.49
2023-04-23T08:19:06.257Z,30.01
2023-04-23T08:21:35.481Z,26.73
2023-04-23T08:24:03.285Z,26.52
2023-04-23T08:26:31.578Z,28.66
2023-04-23T08:29:00.743Z,30.75
2023-04-23T08:31:28.606Z,29.29
2023-04-23T08:33:56.210Z,27.85
2023-04-23T08:36:24.517Z,28.96
2023-04-23T08:38:51.685Z,31.39
2023-04-23T08:41:23.492Z,30.25
2023-04-23T08:44:09.727Z,31.91
2023-04-23T08:46:38.223Z,30.35
2023-04-23T08:49:08.545Z,28.09
2023-04-23T08:51:42.946Z,30.61
2023-04-23T08:54:15.952Z,26.77
2023-04-23T08:56:44.950Z,27.98
2023-04-23T08:59:12.239Z,27.54
2023-04-23T09:01:41.545Z,25.36
2023-04-23T09:04:10.140Z,27.16
2023-04-23T09:06:37.874Z,26.18
2023-04-23T09:09:07.468Z,29.46
2023-04-23T09:11:38.238Z,28.53
2023-04-23T09:14:05.525Z,27.91
2023-04-23T09:16:33.176Z,27.64
2023-04-23T09:19:00.528Z,29.00
2023-04-23T09:21:28.128Z,31.93
2023-04-23T09:23:55.244Z,31.25
2023-04-23T09:26:23.171Z,27.83
2023-04-23T09:28:53.697Z,31.13
2023-04-23T09:31:22.955Z,31.97
2023-04-23T09:33:54.547Z,26.56
2023-04-23T09:36:23.839Z,25.76
2023-04-23T09:38:55.961Z,25.96
2023-04-23T09:41:25.855Z,23.93
2023-04-23T09:43:56.456Z,26.98
2023-04-23T09:46:34.396Z,29.65
2023-04-23T09:49:07.959Z,28.86
2023-04-23T09:51:40.755Z,28.62
2023-04-23T09:54:12.894Z,27.59
2023-04-23T09:56:43.699Z,25.78
2023-04-23T09:59:32.076Z,26.89
2023-04-23T10:02:06.403Z,25.04
2023-04-23T10:04:34.848Z,26.31
2023-04-23T10:07:18.056Z,27.58
2023-04-23T10:09:47.309Z,24.88
2023-04-23T10:14:46.598Z,26.36
2023-04-23T10:17:14.126Z,26.56
2023-04-23T10:19:43.481Z,26.28
2023-04-23T10:22:19.623Z,26.52
2023-04-23T10:24:52.260Z,26.67
2023-04-23T10:29:53.931Z,27.38
2023-04-23T10:32:21.879Z,24.87
2023-04-23T10:34:49.482Z,25.57
2023-04-23T10:37:19.550Z,23.99
2023-04-23T10:39:54.516Z,25.63
2023-04-23T10:42:23.648Z,24.98
2023-04-23T10:45:00.918Z,25.42
2023-04-23T10:47:31.233Z,25.25
2023-04-23T10:49:58.489Z,24.92
2023-04-23T10:52:26.327Z,24.46
2023-04-23T10:55:00.214Z,22.78
2023-04-23T10:57:28.138Z,24.56
2023-04-23T10:59:56.467Z,24.36
2023-04-23T11:02:24.876Z,25.10
2023-04-23T11:05:01.521Z,25.20
2023-04-23T11:07:33.281Z,24.13
2023-04-23T11:10:14.711Z,23.54
2023-04-23T11:12:44.214Z,22.75
2023-04-23T11:15:12.619Z,22.90
2023-04-23T11:17:47.524Z,22.90
2023-04-23T11:20:16.383Z,22.64
2023-04-23T11:22:45.876Z,22.59
2023-04-23T11:25:20.584Z,22.61
2023-04-23T11:27:50.318Z,22.68
2023-04-23T11:30:22.514Z,22.90
2023-04-23T11:32:52.289Z,23.32
2023-04-23T11:35:21.880Z,23.48
2023-04-23T11:37:49.676Z,22.44
2023-04-23T11:40:21.149Z,22.31
2023-04-23T11:42:55.602Z,22.19
2023-04-23T11:45:28.526Z,22.52
2023-04-23T11:47:59.139Z,22.36
2023-04-23T11:50:33.347Z,22.72
2023-04-23T11:53:10.532Z,22.58
2023-04-23T11:55:44.159Z,22.35
2023-04-23T11:58:11.887Z,22.47
2023-04-23T12:00:39.108Z,22.39
2023-04-23T12:03:07.263Z,22.40
2023-04-23T12:05:42.422Z,22.24
2023-04-23T12:08:17.814Z,22.51
2023-04-23T12:10:49.905Z,22.93
2023-04-23T12:13:19.683Z,22.70
2023-04-23T12:15:48.557Z,22.03
2023-04-23T12:18:16.911Z,22.14
2023-04-23T12:20:44.620Z,22.12
2023-04-23T12:23:12.594Z,22.15
2023-04-23T12:25:42.369Z,22.37
2023-04-23T12:28:10.009Z,22.27
2023-04-23T12:30:44.056Z,22.61
2023-04-23T12:33:13.128Z,22.45
2023-04-23T12:35:51.681Z,22.35
2023-04-23T12:38:27.141Z,22.26
2023-04-23T12:40:59.400Z,22.45
2023-04-23T12:43:27.430Z,22.29
2023-04-23T12:45:55.074Z,22.51
2023-04-23T12:48:22.526Z,22.33
2023-04-23T12:50:49.713Z,22.29
2023-04-23T12:53:18.881Z,22.61
2023-04-23T12:55:46.244Z,22.48
2023-04-23T12:58:13.755Z,22.54
2023-04-23T13:00:41.039Z,22.07
2023-04-23T13:03:09.143Z,22.27
2023-04-23T13:05:36.587Z,22.46
2023-04-23T13:08:04.045Z,22.01
2023-04-23T13:10:31.284Z,22.23
2023-04-23T13:12:58.743Z,22.21
2023-04-23T13:15:27.120Z,22.41
2023-04-23T13:17:54.764Z,22.43
2023-04-23T13:20:22.130Z,22.31
2023-04-23T13:22:49.589Z,22.56
2023-04-23T13:25:16.816Z,22.55
2023-04-23T13:27:44.416Z,22.68
2023-04-23T13:30:12.235Z,22.64
2023-04-23T13:32:39.806Z,22.74
2023-04-23T13:35:07.738Z,22.84
2023-04-23T13:37:35.247Z,22.76
2023-04-23T13:40:02.865Z,22.29
2023-04-23T13:42:31.246Z,22.43
2023-04-23T13:44:58.459Z,22.76
2023-04-23T13:47:27.526Z,22.78
2023-04-23T13:49:54.858Z,22.70
2023-04-23T13:52:22.365Z,22.68
2023-04-23T13:54:50.929Z,22.70
2023-04-23T13:57:18.550Z,22.56
2023-04-23T13:59:45.789Z,22.62
2023-04-23T14:02:13.296Z,22.65
2023-04-23T14:04:40.690Z,22.60
2023-04-23T14:07:08.301Z,22.51
2023-04-23T14:09:35.474Z,22.60
2023-04-23T14:12:03.023Z,22.49
2023-04-23T14:14:30.393Z,22.46
2023-04-23T14:16:57.945Z,22.66
2023-04-23T14:19:25.222Z,22.69
2023-04-23T14:21:52.936Z,22.84
2023-04-23T14:24:27.605Z,22.80
2023-04-23T14:26:55.533Z,22.30
2023-04-23T14:29:50.694Z,22.79
2023-04-23T14:32:18.192Z,22.67
2023-04-23T14:34:45.466Z,22.59
2023-04-23T14:37:13.099Z,22.89
2023-04-23T14:39:41.547Z,22.54
2023-04-23T14:42:09.691Z,22.84
2023-04-23T14:44:36.983Z,22.65
2023-04-23T14:47:06.335Z,22.61
2023-04-23T14:49:33.781Z,22.82
2023-04-23T14:52:03.108Z,22.89
2023-04-23T14:54:30.253Z,22.64
2023-04-23T14:56:57.721Z,22.87
2023-04-23T14:59:25.094Z,22.78
2023-04-23T15:01:52.701Z,22.72
2023-04-23T15:04:20.142Z,22.28
2023-04-23T15:06:47.805Z,22.46
2023-04-23T15:09:15.031Z,22.49
2023-04-23T15:11:43.373Z,22.52
2023-04-23T15:14:37.258Z,22.56
2023-04-23T15:17:04.842Z,22.53
2023-04-23T15:19:32.984Z,22.27
2023-04-23T15:22:00.530Z,22.75
2023-04-23T15:24:27.797Z,22.51
2023-04-23T15:26:58.152Z,22.55
2023-04-23T15:29:25.507Z,22.49
2023-04-23T15:31:58.159Z,22.40
2023-04-23T15:34:25.703Z,22.41
2023-04-23T15:36:53.172Z,22.41
2023-04-23T15:39:20.416Z,22.48
2023-04-23T15:41:47.990Z,22.27
2023-04-23T15:44:15.466Z,22.38
2023-04-23T15:46:43.001Z,22.31
2023-04-23T15:49:10.516Z,22.17
2023-04-23T15:51:38.025Z,22.32
2023-04-23T15:54:08.453Z,22.09
2023-04-23T15:56:37.102Z,22.16
2023-04-23T15:59:04.492Z,22.37
2023-04-23T16:01:32.014Z,22.20
2023-04-23T16:06:29.581Z,22.25
2023-04-23T16:08:56.776Z,22.36
2023-04-23T16:11:27.684Z,22.80
2023-04-23T16:13:56.206Z,22.53
2023-04-23T16:16:23.755Z,22.37
2023-04-23T16:18:50.962Z,22.42
2023-04-23T16:21:18.442Z,22.63
2023-04-23T16:23:46.239Z,22.65
2023-04-23T16:26:13.727Z,22.55
2023-04-23T16:28:41.224Z,22.27
2023-04-23T16:31:08.798Z,22.52
2023-04-23T16:33:36.028Z,22.70
2023-04-23T16:36:03.940Z,22.49
2023-04-23T16:38:31.153Z,22.36
2023-04-23T16:40:58.699Z,22.52
2023-04-23T16:43:25.969Z,22.12
2023-04-23T16:45:53.553Z,22.17
2023-04-23T16:48:21.364Z,22.23
2023-04-23T16:50:48.917Z,22.39
2023-04-23T16:53:16.145Z,22.30
2023-04-23T16:55:43.806Z,21.63
2023-04-23T16:58:11.163Z,21.57
2023-04-23T17:00:38.717Z,20.79
2023-04-23T17:03:06.196Z,20.24
2023-04-23T17:05:34.470Z,20.34
2023-04-23T17:08:01.848Z,19.30
2023-04-23T17:10:29.553Z,19.12
2023-04-23T17:12:57.070Z,18.70
2023-04-23T17:15:24.797Z,18.45
2023-04-23T17:17:52.970Z,18.27
2023-04-23T17:20:22.120Z,18.35
2023-04-23T17:22:49.424Z,18.04
2023-04-23T17:25:16.911Z,18.21
2023-04-23T17:27:44.329Z,18.14
2023-04-23T17:30:12.295Z,18.05
2023-04-23T17:32:39.548Z,17.98
2023-04-23T17:35:10.686Z,18.37
2023-04-23T17:37:38.279Z,18.27
2023-04-23T17:40:06.452Z,18.12
2023-04-23T17:42:33.688Z,18.09
2023-04-23T17:45:01.422Z,17.57
2023-04-23T17:47:29.142Z,17.64
2023-04-23T17:49:56.752Z,17.54
2023-04-23T17:52:23.968Z,17.46
2023-04-23T17:54:51.467Z,17.43
2023-04-23T17:57:18.654Z,17.56
2023-04-23T17:59:46.121Z,17.50
2023-04-23T18:02:13.545Z,17.49
2023-04-23T18:04:41.355Z,17.54
2023-04-23T18:07:08.528Z,17.45
2023-04-23T18:09:36.110Z,17.50
2023-04-23T18:12:04.843Z,17.68
2023-04-23T18:14:32.584Z,17.50
2023-04-23T18:16:59.904Z,16.96
2023-04-23T18:19:27.487Z,17.19
2023-04-23T18:21:55.842Z,17.44
2023-04-23T18:24:23.360Z,17.39
2023-04-23T18:26:52.207Z,17.29
2023-04-23T18:29:19.868Z,17.25
2023-04-23T18:31:47.052Z,17.33
2023-04-23T18:34:18.808Z,17.15
2023-04-23T18:36:49.898Z,17.31
2023-04-23T18:39:17.379Z,17.22
2023-04-23T18:41:44.896Z,16.81
2023-04-23T18:44:15.373Z,17.12
2023-04-23T18:46:42.930Z,17.33
2023-04-23T18:49:29.282Z,17.29
2023-04-23T18:51:56.885Z,17.30
2023-04-23T18:54:25.951Z,17.36
2023-04-23T18:56:55.657Z,17.42
2023-04-23T18:59:23.309Z,17.42
2023-04-23T19:01:50.757Z,17.53
2023-04-23T19:04:18.667Z,17.52
2023-04-23T19:06:45.939Z,17.62
2023-04-23T19:09:13.413Z,17.61
2023-04-23T19:11:40.603Z,17.61
2023-04-23T19:14:08.109Z,17.49
2023-04-23T19:16:35.501Z,17.52
2023-04-23T19:19:03.164Z,17.50
2023-04-23T19:21:30.380Z,17.51
2023-04-23T19:23:57.892Z,17.34
2023-04-23T19:26:25.178Z,17.39
2023-04-23T19:28:52.661Z,17.27
2023-04-23T19:31:19.976Z,17.19
2023-04-23T19:33:47.728Z,17.22
2023-04-23T19:36:14.946Z,17.17
2023-04-23T19:38:42.496Z,16.89
2023-04-23T19:41:09.811Z,17.10
2023-04-23T19:43:37.404Z,17.04
2023-04-23T19:46:04.643Z,17.06
2023-04-23T19:48:32.473Z,17.08
2023-04-23T19:50:59.703Z,16.90
2023-04-23T19:53:27.646Z,16.93
2023-04-23T19:55:55.024Z,17.02
2023-04-23T19:58:23.209Z,17.05
2023-04-23T20:00:51.017Z,17.14
2023-04-23T20:03:18.836Z,16.86
2023-04-23T20:05:48.244Z,16.99
2023-04-23T20:08:25.847Z,17.08
2023-04-23T20:10:53.772Z,17.03
2023-04-23T20:13:21.561Z,16.99
2023-04-23T20:15:50.151Z,17.00
2023-04-23T20:18:18.550Z,17.01
2023-04-23T20:20:45.788Z,16.96
2023-04-23T20:23:13.385Z,16.93
2023-04-23T20:25:40.604Z,16.94
2023-04-23T20:28:10.958Z,16.94
2023-04-23T20:30:38.186Z,16.88
2023-04-23T20:33:06.080Z,16.92
2023-04-23T20:35:34.514Z,16.79
2023-04-23T20:38:02.286Z,16.85
2023-04-23T20:40:34.512Z,16.82
2023-04-23T20:43:02.249Z,16.82
2023-04-23T20:45:29.531Z,16.82
2023-04-23T20:47:57.601Z,16.95
2023-04-23T20:50:25.016Z,16.76
2023-04-23T20:52:52.519Z,16.82
2023-04-23T20:55:19.857Z,16.89
2023-04-23T20:57:47.341Z,16.87
2023-04-23T21:00:15.032Z,16.92
2023-04-23T21:02:42.794Z,17.00
2023-04-23T21:05:12.173Z,16.89
2023-04-23T21:07:39.833Z,16.95
2023-04-23T21:10:07.559Z,16.81
2023-04-23T21:12:35.347Z,16.78
2023-04-23T21:15:02.553Z,16.73
2023-04-23T21:17:30.078Z,16.28
2023-04-23T21:19:57.407Z,16.20
2023-04-23T21:22:24.869Z,16.29
2023-04-23T21:24:52.078Z,16.34
2023-04-23T21:27:21.982Z,16.32
2023-04-23T21:29:49.468Z,16.36
2023-04-23T21:32:17.263Z,15.92
2023-04-23T21:34:44.534Z,16.14
2023-04-23T21:37:12.054Z,16.23
2023-04-23T21:39:39.212Z,16.38
2023-04-23T21:42:07.459Z,16.18
2023-04-23T21:44:36.687Z,16.34
2023-04-23T21:47:04.651Z,16.36
2023-04-23T21:49:32.847Z,16.30
2023-04-23T21:52:02.280Z,15.94
2023-04-23T21:54:29.899Z,15.76
2023-04-23T21:56:57.381Z,15.46
2023-04-23T21:59:24.861Z,15.77
2023-04-23T22:01:52.426Z,15.42
2023-04-23T22:04:20.696Z,15.33
2023-04-23T22:06:48.439Z,15.57
2023-04-23T22:09:15.923Z,15.46
2023-04-23T22:11:55.275Z,15.35
2023-04-23T22:14:28.687Z,15.14
2023-04-23T22:16:58.745Z,14.84
2023-04-23T22:19:26.135Z,14.89
2023-04-23T22:21:55.009Z,14.96
2023-04-23T22:24:22.792Z,15.07
2023-04-23T22:26:50.380Z,15.16
2023-04-23T22:29:17.611Z,15.27
2023-04-23T22:31:45.142Z,15.20
2023-04-23T22:34:12.411Z,14.83
2023-04-23T22:36:43.166Z,14.98
2023-04-23T22:39:10.889Z,15.09
2023-04-23T22:41:40.377Z,15.21
2023-04-23T22:44:09.412Z,15.18
2023-04-23T22:46:37.406Z,15.12
2023-04-23T22:49:07.887Z,14.98
2023-04-23T22:51:36.082Z,15.00
2023-04-23T22:54:03.387Z,14.96
2023-04-23T22:56:30.931Z,14.98
2023-04-23T22:58:58.112Z,14.88
2023-04-23T23:01:26.456Z,14.90
2023-04-23T23:03:54.313Z,14.95
2023-04-23T23:06:22.212Z,14.90
2023-04-23T23:08:49.439Z,14.59
2023-04-23T23:11:17.006Z,14.49
2023-04-23T23:13:45.434Z,14.67
2023-04-23T23:16:12.952Z,14.67
2023-04-23T23:18:40.310Z,14.45
2023-04-23T23:21:08.019Z,14.45
2023-04-23T23:23:35.366Z,14.31
2023-04-23T23:26:02.822Z,14.59
2023-04-23T23:28:29.981Z,14.67
2023-04-23T23:30:57.926Z,14.72
2023-04-23T23:33:25.261Z,14.44
2023-04-23T23:35:52.723Z,14.44
2023-04-23T23:38:19.890Z,14.37
2023-04-23T23:40:47.546Z,14.41
2023-04-23T23:43:14.759Z,14.44
2023-04-23T23:45:42.185Z,14.20
2023-04-23T23:48:09.757Z,14.30
2023-04-23T23:50:37.266Z,14.34
2023-04-23T23:53:04.425Z,14.13
2023-04-23T23:55:32.083Z,13.71
2023-04-23T23:57:59.788Z,13.81
